createdAt,value
2018-07-05T00:03:18.130Z,19.4
2018-07-05T00:08:18.102Z,19.4
2018-07-05T00:13:18.096Z,19.4
2018-07-05T00:18:19.050Z,19.2
2018-07-05T00:23:29.124Z,19.2
2018-07-05T00:28:29.091Z,19.2
2018-07-05T00:33:29.078Z,19.1
2018-07-05T00:38:30.035Z,19
2018-07-05T00:43:29.023Z,18.9
2018-07-05T00:48:29.988Z,18.9
2018-07-05T00:53:39.038Z,18.6
2018-07-05T00:58:36.998Z,18.6
2018-07-05T01:03:36.969Z,18.4
2018-07-05T01:08:39.969Z,18.4
2018-07-05T01:13:38.935Z,18.2
2018-07-05T01:18:38.902Z,18
2018-07-05T01:23:48.976Z,18.1
2018-07-05T01:28:47.952Z,18
2018-07-05T01:33:47.900Z,17.9
2018-07-05T01:38:51.929Z,17.9
2018-07-05T01:43:52.882Z,17.8
2018-07-05T01:48:51.843Z,17.6
2018-07-05T01:53:59.910Z,17.7
2018-07-05T01:58:59.883Z,17.4
2018-07-05T02:03:59.859Z,17.4
2018-07-05T02:09:01.847Z,17.5
2018-07-05T02:14:01.814Z,17.4
2018-07-05T02:19:00.795Z,17.2
2018-07-05T02:24:07.807Z,17.2
2018-07-05T02:29:06.801Z,17.2
2018-07-05T02:34:06.768Z,17.1
2018-07-05T02:39:07.713Z,17.1
2018-07-05T02:44:06.694Z,17.1
2018-07-05T02:49:07.666Z,16.9
2018-07-05T02:54:15.722Z,16.8
2018-07-05T02:59:13.691Z,16.7
2018-07-05T03:04:14.636Z,16.7
2018-07-05T03:09:13.619Z,16.6
2018-07-05T03:14:13.579Z,16.7
2018-07-05T03:19:15.558Z,16.7
2018-07-05T03:24:18.590Z,16.6
2018-07-05T03:29:20.466Z,16.6
2018-07-05T03:34:18.532Z,16.6
2018-07-05T03:39:19.497Z,16.5
2018-07-05T03:44:18.472Z,16.5
2018-07-05T03:49:19.429Z,16.6
2018-07-05T03:54:28.486Z,16.6
2018-07-05T03:59:26.499Z,16.7
2018-07-05T04:04:27.507Z,17
2018-07-05T04:09:28.401Z,17.2
2018-07-05T04:14:27.390Z,17.7
2018-07-05T04:19:28.346Z,17.9
2018-07-05T04:24:37.388Z,18.1
2018-07-05T04:29:35.354Z,18.2
2018-07-05T04:34:35.340Z,18.5
2018-07-05T04:39:35.342Z,18.8
2018-07-05T04:44:35.268Z,19
2018-07-05T04:49:36.271Z,19.2
2018-07-05T04:54:53.406Z,19.4
2018-07-05T04:59:51.349Z,19.8
2018-07-05T05:04:55.345Z,20
2018-07-05T05:09:56.365Z,20.2
2018-07-05T05:14:57.369Z,20.4
2018-07-05T05:19:56.290Z,20.6
2018-07-05T05:25:06.345Z,20.9
2018-07-05T05:30:06.381Z,20.9
2018-07-05T05:35:09.323Z,21.3
2018-07-05T05:40:12.324Z,20.8
2018-07-05T05:45:14.306Z,21.5
2018-07-05T05:50:27.416Z,21.7
2018-07-05T05:55:27.403Z,22.1
2018-07-05T06:00:29.377Z,22.5
2018-07-05T06:05:33.398Z,22.8
2018-07-05T06:10:32.379Z,22.9
2018-07-05T06:15:32.330Z,23.1
2018-07-05T06:20:42.382Z,23.6
2018-07-05T06:25:41.436Z,23.8
2018-07-05T06:30:41.329Z,24.3
2018-07-05T06:35:42.305Z,24.3
2018-07-05T06:40:41.280Z,24.7
2018-07-05T06:45:41.260Z,24.4
2018-07-05T06:50:53.364Z,24.6
2018-07-05T06:55:54.295Z,25
2018-07-05T07:00:53.289Z,25.3
2018-07-05T07:05:53.243Z,25.5
2018-07-05T07:10:54.198Z,25.4
2018-07-05T07:15:53.182Z,25.5
2018-07-05T07:21:07.284Z,26
2018-07-05T07:26:05.227Z,26.1
2018-07-05T07:31:06.214Z,26.4
2018-07-05T07:36:05.212Z,26.4
2018-07-05T07:41:05.160Z,26.5
2018-07-05T07:46:06.146Z,26.7
2018-07-05T07:51:16.569Z,27.1
2018-07-05T07:56:15.172Z,27.6
2018-07-05T08:01:16.133Z,27.6
2018-07-05T08:06:18.209Z,27.3
2018-07-05T08:11:17.169Z,27.6
2018-07-05T08:16:18.089Z,28
2018-07-05T08:21:28.142Z,28.1
2018-07-05T08:26:26.110Z,28.3
2018-07-05T08:31:26.150Z,28.7
2018-07-05T08:36:29.084Z,28.9
2018-07-05T08:41:30.048Z,28.6
2018-07-05T08:46:29.026Z,29
2018-07-05T08:51:43.112Z,28.9
2018-07-05T08:56:41.101Z,28.9
2018-07-05T09:01:41.057Z,29.2
2018-07-05T09:06:41.049Z,28.8
2018-07-05T09:11:40.996Z,29.2
2018-07-05T09:16:41.981Z,29.3
2018-07-05T09:21:52.054Z,29.1
2018-07-05T09:26:50.041Z,29.3
2018-07-05T09:31:50.956Z,29.2
2018-07-05T09:36:53.960Z,30
2018-07-05T09:41:51.947Z,29.7
2018-07-05T09:46:51.912Z,30.2
2018-07-05T09:52:01.959Z,30.6
2018-07-05T09:56:59.970Z,30.5
2018-07-05T10:02:01.903Z,30.7
2018-07-05T10:07:02.888Z,30.9
2018-07-05T10:12:00.860Z,30.7
2018-07-05T10:17:01.815Z,30.6
2018-07-05T10:22:11.942Z,30.6
2018-07-05T10:27:10.847Z,30.5
2018-07-05T10:32:10.829Z,30.8
2018-07-05T10:37:11.785Z,30.6
2018-07-05T10:42:10.777Z,30.3
2018-07-05T10:47:10.754Z,30.3
2018-07-05T10:52:30.929Z,30.5
2018-07-05T10:57:31.885Z,30.8
2018-07-05T11:02:33.081Z,30.8
2018-07-05T11:07:30.858Z,30.8
2018-07-05T11:12:31.783Z,31.2
2018-07-05T11:17:30.765Z,30.9
2018-07-05T11:22:44.866Z,30.6
2018-07-05T11:27:42.862Z,31
2018-07-05T11:32:44.807Z,31.2
2018-07-05T11:37:45.783Z,31.7
2018-07-05T11:42:43.803Z,32
2018-07-05T11:47:43.744Z,31.4
2018-07-05T11:52:53.771Z,32.4
2018-07-05T11:57:51.771Z,32.1
2018-07-05T12:02:52.716Z,32.3
2018-07-05T12:07:51.701Z,32
2018-07-05T12:12:52.656Z,32.4
2018-07-05T12:17:53.074Z,32.2
2018-07-05T12:22:58.670Z,32.2
2018-07-05T12:27:58.636Z,32.5
2018-07-05T12:32:58.609Z,32.3
2018-07-05T12:37:58.593Z,32.4
2018-07-05T12:42:59.532Z,32.1
2018-07-05T12:47:58.525Z,32.1
2018-07-05T12:53:20.721Z,32.2
2018-07-05T12:58:17.651Z,32.2
2018-07-05T13:03:18.650Z,31.9
2018-07-05T13:08:17.609Z,31.9
2018-07-05T13:13:17.569Z,32.5
2018-07-05T13:18:19.600Z,32.4
2018-07-05T13:23:36.668Z,32.4
2018-07-05T13:28:34.667Z,32.2
2018-07-05T13:33:34.622Z,32.5
2018-07-05T13:38:34.611Z,32.1
2018-07-05T13:43:34.570Z,32
2018-07-05T13:48:36.562Z,32.3
2018-07-05T13:53:41.606Z,32.1
2018-07-05T13:58:41.546Z,31.9
2018-07-05T14:03:41.559Z,31.6
2018-07-05T14:08:41.473Z,31.4
2018-07-05T14:13:42.461Z,31.2
2018-07-05T14:18:41.424Z,31.5
2018-07-05T14:23:55.541Z,31.1
2018-07-05T14:28:53.517Z,31.3
2018-07-05T14:33:54.468Z,31.5
2018-07-05T14:38:53.449Z,31.2
2018-07-05T14:43:52.823Z,31.6
2018-07-05T14:48:55.376Z,30.9
2018-07-05T14:54:00.433Z,31.3
2018-07-05T14:59:01.399Z,30.9
2018-07-05T15:04:04.346Z,31.1
2018-07-05T15:09:03.351Z,30.8
2018-07-05T15:14:03.338Z,31.1
2018-07-05T15:19:05.316Z,31.1
2018-07-05T15:24:18.450Z,31.1
2018-07-05T15:29:18.414Z,31.5
2018-07-05T15:34:20.376Z,31.7
2018-07-05T15:39:24.387Z,31.3
2018-07-05T15:44:22.381Z,31.4
2018-07-05T15:49:23.313Z,31
2018-07-05T15:54:31.375Z,31.2
2018-07-05T15:59:31.342Z,30.9
2018-07-05T16:04:31.321Z,30.7
2018-07-05T16:09:32.286Z,30.7
2018-07-05T16:14:31.266Z,30.5
2018-07-05T16:19:31.245Z,30.3
2018-07-05T16:24:41.313Z,30.4
2018-07-05T16:29:41.314Z,30.1
2018-07-05T16:34:41.253Z,29.9
2018-07-05T16:39:41.228Z,29.9
2018-07-05T16:44:41.243Z,29.9
2018-07-05T16:49:41.178Z,29.9
2018-07-05T16:54:44.759Z,30
2018-07-05T16:59:46.132Z,29.8
2018-07-05T17:04:45.146Z,29.8
2018-07-05T17:09:46.111Z,29.7
2018-07-05T17:14:47.080Z,29.4
2018-07-05T17:19:45.036Z,29.3
2018-07-05T17:24:53.069Z,29
2018-07-05T17:29:50.033Z,28.8
2018-07-05T17:34:50.322Z,28.7
2018-07-05T17:39:51.044Z,28.6
2018-07-05T17:44:51.985Z,28.3
2018-07-05T17:49:51.934Z,28.2
2018-07-05T17:55:03.019Z,27.7
2018-07-05T18:00:02.006Z,27.6
2018-07-05T18:05:01.964Z,27.4
2018-07-05T18:10:04.798Z,27
2018-07-05T18:15:01.890Z,26.3
2018-07-05T18:20:02.898Z,26
2018-07-05T18:25:01.858Z,25.4
2018-07-05T18:30:15.975Z,25.4
2018-07-05T18:35:17.926Z,24.8
2018-07-05T18:40:15.910Z,24.4
2018-07-05T18:45:16.858Z,24.1
2018-07-05T18:50:15.829Z,23.7
2018-07-05T18:55:15.813Z,23.3
2018-07-05T19:00:25.860Z,23.2
2018-07-05T19:05:26.894Z,22.9
2018-07-05T19:10:24.809Z,22.6
2018-07-05T19:15:24.778Z,22.7
2018-07-05T19:20:29.804Z,22.6
2018-07-05T19:25:24.738Z,22.5
2018-07-05T19:30:41.881Z,22.4
2018-07-05T19:35:40.990Z,22.3
2018-07-05T19:40:47.849Z,22.1
2018-07-05T19:45:45.838Z,22.1
2018-07-05T19:50:46.815Z,22.1
2018-07-05T19:55:47.762Z,22
2018-07-05T20:01:00.916Z,21.9
2018-07-05T20:06:01.848Z,21.7
2018-07-05T20:11:00.845Z,21.7
2018-07-05T20:16:08.902Z,21.6
2018-07-05T20:21:08.843Z,21.7
2018-07-05T20:26:08.854Z,21.5
2018-07-05T20:31:21.903Z,21.4
2018-07-05T20:36:21.859Z,21.3
2018-07-05T20:41:20.848Z,21.5
2018-07-05T20:46:22.818Z,21.4
2018-07-05T20:51:20.842Z,21.5
2018-07-05T20:56:21.751Z,21.4
2018-07-05T21:01:26.789Z,21.4
2018-07-05T21:06:26.760Z,21.4
2018-07-05T21:11:29.762Z,21.3
2018-07-05T21:16:28.715Z,21.2
2018-07-05T21:21:28.699Z,21.1
2018-07-05T21:26:30.679Z,20.9
2018-07-05T21:31:34.662Z,20.4
2018-07-05T21:36:35.382Z,20.6
2018-07-05T21:41:33.623Z,20.4
2018-07-05T21:46:34.606Z,20.4
2018-07-05T21:51:33.572Z,20.3
2018-07-05T21:56:33.622Z,20.2
2018-07-05T22:01:50.675Z,20.3
2018-07-05T22:06:52.572Z,20
2018-07-05T22:11:50.597Z,20.3
2018-07-05T22:16:50.579Z,20.3
2018-07-05T22:21:50.569Z,20.1
2018-07-05T22:26:50.537Z,20
2018-07-05T22:31:59.568Z,20.1
2018-07-05T22:36:58.579Z,19.9
2018-07-05T22:41:59.515Z,19.9
2018-07-05T22:47:00.500Z,19.9
2018-07-05T22:51:58.488Z,20
2018-07-05T22:56:58.449Z,20
2018-07-05T23:02:16.585Z,19.9
2018-07-05T23:07:13.577Z,19.9
2018-07-05T23:12:14.512Z,19.9
2018-07-05T23:17:16.487Z,19.9
2018-07-05T23:22:15.458Z,19.7
2018-07-05T23:27:16.436Z,19.4
2018-07-05T23:32:25.500Z,19.5
2018-07-05T23:37:25.497Z,19.5
2018-07-05T23:42:25.438Z,19.4
2018-07-05T23:47:28.450Z,19.5
2018-07-05T23:52:29.412Z,19.5
2018-07-05T23:57:28.401Z,19.5
